Time;durP1;ratioP1;P1;durP2;ratioP2;P2;SDS_P1;SDS_P2;PMS_P1;PMS_P2;Temp;Humidity;BMP_temperature;BMP_pressure;BME280_temperature;BME280_humidity;BME280_pressure;Samples;Min_cycle;Max_cycle;Signal;HPM_P1;HPM_P2
2022/04/27 00:01:52;;;;;;;7.35;5.45;;;435.50;2355.20;;;;;;5076037;28;20394;-80
2022/04/27 00:04:18;;;;;;;9.48;5.60;;;435.50;2355.20;;;;;;5077315;28;20032;-80
2022/04/27 00:06:44;;;;;;;9.23;5.85;;;435.50;2355.20;;;;;;5076838;28;20508;-80
2022/04/27 00:09:11;;;;;;;8.25;6.28;;;435.50;2355.20;;;;;;5077640;28;20028;-80
2022/04/27 00:11:38;;;;;;;12.48;6.90;;;435.50;2355.20;;;;;;5077561;28;20027;-81
2022/04/27 00:14:03;;;;;;;7.70;4.65;;;435.30;2355.20;;;;;;5077165;28;20020;-81
2022/04/27 00:16:30;;;;;;;10.45;5.93;;;435.30;2355.20;;;;;;5075656;28;20051;-82
2022/04/27 00:18:56;;;;;;;9.05;5.63;;;435.40;2355.20;;;;;;5075881;28;20028;-81
2022/04/27 00:21:22;;;;;;;9.60;5.20;;;435.30;2355.20;;;;;;5075295;28;20107;-80
2022/04/27 00:23:48;;;;;;;7.63;4.95;;;435.40;2355.20;;;;;;5075672;28;20032;-81
2022/04/27 00:26:14;;;;;;;5.13;3.03;;;435.50;2355.20;;;;;;5075804;28;20051;-81
2022/04/27 00:28:39;;;;;;;10.10;2.85;;;435.30;2355.20;;;;;;5074743;28;20082;-80
2022/04/27 00:31:05;;;;;;;10.13;2.80;;;435.30;2355.20;;;;;;5075590;28;20045;-79
2022/04/27 00:33:32;;;;;;;8.02;2.28;;;435.20;2355.20;;;;;;5075571;28;20067;-81
2022/04/27 00:35:58;;;;;;;6.05;2.00;;;410.50;2355.20;;;;;;5075699;28;20112;-83
2022/04/27 00:38:23;;;;;;;7.75;2.50;;;410.40;2355.20;;;;;;5075632;28;20031;-83
2022/04/27 00:40:49;;;;;;;3.13;1.67;;;410.20;2355.20;;;;;;5075505;28;20017;-80
2022/04/27 00:43:15;;;;;;;5.33;2.20;;;410.00;2355.20;;;;;;5075374;28;20036;-80
2022/04/27 00:45:42;;;;;;;12.82;4.40;;;409.90;2355.20;;;;;;5075308;28;20115;-83
2022/04/27 00:48:09;;;;;;;5.13;2.20;;;410.00;2355.20;;;;;;5075085;28;20028;-79
2022/04/27 00:50:36;;;;;;;7.07;1.80;;;409.70;2355.20;;;;;;5075186;28;20074;-83
2022/04/27 00:53:01;;;;;;;3.28;1.73;;;409.60;2355.20;;;;;;5075340;28;20048;-83
2022/04/27 00:55:30;;;;;;;7.35;3.08;;;384.70;2329.60;;;;;;5075635;28;20017;-83
2022/04/27 00:57:56;;;;;;;6.40;2.28;;;384.90;2329.60;;;;;;5075035;28;20029;-82
2022/04/27 01:00:22;;;;;;;3.78;1.70;;;384.90;2329.60;;;;;;5075201;28;20481;-81
2022/04/27 01:02:48;;;;;;;5.82;1.90;;;384.70;2329.60;;;;;;5075403;28;20024;-83
2022/04/27 01:05:14;;;;;;;3.70;1.73;;;384.80;2329.60;;;;;;5076639;28;20046;-84
2022/04/27 01:07:41;;;;;;;7.95;2.15;;;409.60;2355.20;;;;;;5075566;28;20028;-80
2022/04/27 01:10:09;;;;;;;4.72;2.30;;;410.00;2355.20;;;;;;5075130;28;20021;-80
2022/04/27 01:12:36;;;;;;;5.55;2.60;;;409.70;2355.20;;;;;;5074996;28;20493;-83
2022/04/27 01:15:03;;;;;;;4.90;2.38;;;409.80;2355.20;;;;;;5074801;28;20035;-83
2022/04/27 01:17:29;;;;;;;5.90;2.90;;;409.70;2355.20;;;;;;5073880;28;20036;-84
2022/04/27 01:19:54;;;;;;;8.85;2.33;;;409.60;2355.20;;;;;;5075152;28;20028;-83
2022/04/27 01:22:20;;;;;;;7.30;2.53;;;409.60;2355.20;;;;;;5074231;28;20020;-81
2022/04/27 01:24:46;;;;;;;5.90;2.50;;;384.80;2329.60;;;;;;5074773;28;20036;-80
2022/04/27 01:27:12;;;;;;;3.92;2.03;;;384.70;2329.60;;;;;;5074676;28;20444;-80
2022/04/27 01:29:38;;;;;;;4.30;2.03;;;384.70;2329.60;;;;;;5074258;28;20039;-84
2022/04/27 01:32:04;;;;;;;3.97;2.20;;;384.70;2329.60;;;;;;5074384;28;20039;-82
2022/04/27 01:34:30;;;;;;;3.75;2.25;;;384.70;2329.60;;;;;;5074676;28;20059;-84
2022/04/27 01:37:59;;;;;;;3.65;1.90;;;384.70;2329.60;;;;;;5074600;28;20052;-80
2022/04/27 01:39:43;;;;;;;3.45;1.75;;;384.70;2329.60;;;;;;5075640;28;20466;-80
2022/04/27 01:42:08;;;;;;;5.60;1.65;;;384.60;2329.60;;;;;;5074384;28;20470;-81
2022/04/27 01:44:34;;;;;;;5.00;2.10;;;384.60;2329.60;;;;;;5074350;28;20043;-81
2022/04/27 01:47:00;;;;;;;5.68;2.10;;;384.70;2329.60;;;;;;5073722;28;20113;-82
2022/04/27 01:49:26;;;;;;;4.30;1.70;;;384.90;2329.60;;;;;;5074445;28;20035;-80
2022/04/27 01:54:35;;;;;;;5.13;2.53;;;384.90;2329.60;;;;;;5075522;28;20073;-82
2022/04/27 01:57:01;;;;;;;10.13;3.13;;;409.80;2355.20;;;;;;5073993;28;20393;-80
2022/04/27 01:59:27;;;;;;;4.55;2.47;;;409.90;2355.20;;;;;;5074086;28;20055;-81
2022/04/27 02:01:58;;;;;;;3.88;2.55;;;410.00;2355.20;;;;;;5073451;28;20540;-84
2022/04/27 02:04:24;;;;;;;5.47;2.95;;;410.00;2355.20;;;;;;5074083;28;20036;-83
2022/04/27 02:06:49;;;;;;;5.90;2.75;;;410.10;2355.20;;;;;;5074071;28;20028;-84
2022/04/27 02:09:15;;;;;;;5.10;2.70;;;410.20;2355.20;;;;;;5075044;28;20096;-83
2022/04/27 02:11:41;;;;;;;5.18;2.53;;;410.20;2355.20;;;;;;5073362;28;20064;-82
2022/04/27 02:14:07;;;;;;;2.65;1.50;;;410.10;2355.20;;;;;;5073902;28;20388;-80
2022/04/27 02:16:33;;;;;;;3.05;1.90;;;409.90;2355.20;;;;;;5073763;28;20496;-81
2022/04/27 02:18:59;;;;;;;4.05;1.90;;;409.80;2355.20;;;;;;5073510;28;20070;-81
2022/04/27 02:21:25;;;;;;;3.55;2.33;;;410.00;2355.20;;;;;;5074196;28;20021;-83
2022/04/27 02:23:52;;;;;;;4.95;2.10;;;409.90;2355.20;;;;;;5074011;28;20040;-80
2022/04/27 02:26:18;;;;;;;7.22;3.15;;;409.90;2355.20;;;;;;5090888;28;20013;-80
2022/04/27 02:28:44;;;;;;;6.88;3.88;;;409.70;2355.20;;;;;;5098074;28;20051;-80
2022/04/27 02:31:09;;;;;;;7.93;3.78;;;409.70;2355.20;;;;;;5088372;28;20043;-83
2022/04/27 02:33:35;;;;;;;7.28;3.53;;;409.80;2355.20;;;;;;5074495;28;20048;-80
2022/04/27 02:36:01;;;;;;;6.50;3.10;;;409.70;2355.20;;;;;;5073729;28;20504;-80
2022/04/27 02:38:27;;;;;;;5.95;2.58;;;409.70;2355.20;;;;;;5073648;28;20025;-80
2022/04/27 02:40:54;;;;;;;3.65;2.45;;;409.80;2355.20;;;;;;5073105;28;20090;-80
2022/04/27 02:43:21;;;;;;;4.22;2.22;;;409.60;2355.20;;;;;;5073353;28;20028;-83
2022/04/27 02:45:47;;;;;;;4.80;3.10;;;384.90;2329.60;;;;;;5073420;28;20031;-80
2022/04/27 02:48:12;;;;;;;5.85;2.20;;;409.60;2355.20;;;;;;5073175;28;20020;-82
2022/04/27 02:53:23;;;;;;;5.32;2.30;;;409.70;2355.20;;;;;;5093958;28;20104;-83
2022/04/27 02:55:48;;;;;;;6.15;2.53;;;409.80;2355.20;;;;;;5076382;28;20052;-83
2022/04/27 02:58:14;;;;;;;6.70;3.05;;;409.70;2355.20;;;;;;5076018;28;20036;-83
2022/04/27 03:00:40;;;;;;;6.95;3.72;;;409.60;2355.20;;;;;;5076487;28;20044;-83
2022/04/27 03:03:07;;;;;;;5.55;2.97;;;409.70;2355.20;;;;;;5076018;28;20034;-83
2022/04/27 03:05:33;;;;;;;5.28;2.97;;;409.70;2355.20;;;;;;5076317;28;20028;-84
2022/04/27 03:07:59;;;;;;;5.80;3.60;;;409.70;2355.20;;;;;;5076326;28;20115;-82
2022/04/27 03:10:24;;;;;;;7.43;4.18;;;409.80;2355.20;;;;;;5076373;28;20060;-80
2022/04/27 03:12:50;;;;;;;6.72;3.90;;;409.70;2355.20;;;;;;5075843;28;20119;-84
2022/04/27 03:15:17;;;;;;;7.22;4.20;;;409.70;2355.20;;;;;;5074931;28;20522;-82
2022/04/27 03:17:42;;;;;;;6.20;3.75;;;409.80;2355.20;;;;;;5094301;28;20024;-81
2022/04/27 03:20:08;;;;;;;6.22;4.03;;;409.80;2355.20;;;;;;5076385;28;20024;-80
2022/04/27 03:22:34;;;;;;;7.85;4.43;;;409.80;2355.20;;;;;;5076181;28;20398;-83
2022/04/27 03:25:00;;;;;;;5.43;4.38;;;409.60;2355.20;;;;;;5076202;28;20047;-82
2022/04/27 03:27:26;;;;;;;7.22;4.28;;;409.70;2355.20;;;;;;5076060;28;20613;-80
2022/04/27 03:29:51;;;;;;;7.50;5.13;;;384.70;2329.60;;;;;;5076260;28;20031;-80
2022/04/27 03:32:17;;;;;;;9.80;4.80;;;384.80;2329.60;;;;;;5076500;28;20063;-83
2022/04/27 03:34:43;;;;;;;7.20;4.85;;;384.60;2329.60;;;;;;5075638;28;20043;-80
2022/04/27 03:37:08;;;;;;;10.23;6.35;;;384.40;2329.60;;;;;;5076040;28;20024;-83
2022/04/27 03:39:35;;;;;;;9.80;5.25;;;384.50;2329.60;;;;;;5094084;28;20382;-84
2022/04/27 03:42:00;;;;;;;10.55;6.25;;;384.50;2329.60;;;;;;5075698;28;20119;-81
2022/04/27 03:44:26;;;;;;;14.80;7.47;;;384.40;2329.60;;;;;;5075807;28;20147;-82
2022/04/27 03:46:52;;;;;;;15.93;8.23;;;384.40;2329.60;;;;;;5075960;28;20541;-79
2022/04/27 03:49:18;;;;;;;15.80;7.60;;;384.40;2329.60;;;;;;5075363;28;20038;-81
2022/04/27 03:51:44;;;;;;;12.75;7.03;;;384.40;2329.60;;;;;;5075589;28;20040;-82
2022/04/27 03:54:09;;;;;;;15.32;7.85;;;384.40;2329.60;;;;;;5075670;28;20064;-83
2022/04/27 03:56:35;;;;;;;14.40;9.95;;;384.30;2329.60;;;;;;5075673;28;20525;-85
2022/04/27 03:59:01;;;;;;;17.95;11.10;;;384.30;2329.60;;;;;;5076136;28;20028;-80
2022/04/27 04:01:28;;;;;;;19.38;12.38;;;384.40;2329.60;;;;;;5076000;28;20478;-84
2022/04/27 04:03:56;;;;;;;21.17;13.40;;;384.40;2329.60;;;;;;5075443;28;20485;-84
2022/04/27 04:06:21;;;;;;;27.35;13.20;;;384.40;2329.60;;;;;;5093775;28;20377;-80
2022/04/27 04:08:47;;;;;;;19.85;12.90;;;384.40;2329.60;;;;;;5075619;28;20020;-81
2022/04/27 04:11:13;;;;;;;18.02;13.10;;;384.50;2329.60;;;;;;5093320;28;20443;-81
2022/04/27 04:13:40;;;;;;;18.90;11.57;;;384.60;2329.60;;;;;;5075639;28;20835;-79
2022/04/27 04:16:06;;;;;;;14.25;10.35;;;384.70;2329.60;;;;;;5093424;28;20017;-81
2022/04/27 04:18:31;;;;;;;18.33;10.63;;;384.70;2329.60;;;;;;5075190;28;20024;-80
2022/04/27 04:20:57;;;;;;;12.48;10.18;;;409.60;2355.20;;;;;;5075693;28;20020;-84
2022/04/27 04:23:23;;;;;;;17.58;11.00;;;409.70;2355.20;;;;;;5074806;28;20043;-80
2022/04/27 04:28:32;;;;;;;14.93;10.32;;;384.90;2329.60;;;;;;5097495;28;20031;-79
2022/04/27 04:31:03;;;;;;;21.50;10.70;;;384.90;2329.60;;;;;;5097069;28;20032;-81
2022/04/27 04:33:29;;;;;;;14.73;9.23;;;384.90;2329.60;;;;;;5097321;28;20103;-81
2022/04/27 04:35:56;;;;;;;15.25;9.43;;;384.90;2329.60;;;;;;5078801;28;20036;-79
2022/04/27 04:38:22;;;;;;;12.45;8.85;;;409.60;2355.20;;;;;;5079035;28;20119;-80
2022/04/27 04:40:48;;;;;;;13.43;8.95;;;409.70;2355.20;;;;;;5097093;28;20060;-88
2022/04/27 04:43:14;;;;;;;9.65;6.75;;;409.60;2355.20;;;;;;5078602;28;20028;-80
2022/04/27 04:45:41;;;;;;;10.63;7.70;;;409.70;2355.20;;;;;;5078989;28;20040;-82
2022/04/27 04:48:08;;;;;;;10.00;7.78;;;409.80;2355.20;;;;;;5078635;28;20020;-80
2022/04/27 04:50:35;;;;;;;10.32;7.22;;;409.80;2355.20;;;;;;5079057;28;20045;-84
2022/04/27 04:53:01;;;;;;;11.60;7.28;;;410.00;2355.20;;;;;;5078878;28;20048;-80
2022/04/27 04:55:27;;;;;;;10.95;7.80;;;410.00;2355.20;;;;;;5078649;28;20024;-85
2022/04/27 04:57:52;;;;;;;12.88;7.05;;;410.20;2355.20;;;;;;5096609;28;20024;-84
2022/04/27 05:00:18;;;;;;;11.60;8.20;;;410.20;2355.20;;;;;;5078491;28;20036;-80
2022/04/27 05:02:44;;;;;;;12.25;9.15;;;410.30;2355.20;;;;;;5078523;28;20046;-79
2022/04/27 05:05:12;;;;;;;13.48;9.93;;;410.30;2355.20;;;;;;5096516;28;20071;-79
2022/04/27 05:07:38;;;;;;;13.10;10.70;;;410.40;2355.20;;;;;;5078280;28;20023;-80
2022/04/27 05:10:05;;;;;;;12.20;8.63;;;410.30;2355.20;;;;;;5078161;28;20103;-79
2022/04/27 05:12:34;;;;;;;10.48;8.00;;;410.20;2355.20;;;;;;5095548;28;20085;-79
2022/04/27 05:14:59;;;;;;;12.10;7.97;;;410.20;2355.20;;;;;;5096040;28;20024;-80
2022/04/27 05:17:25;;;;;;;15.15;9.02;;;410.20;2355.20;;;;;;5077338;28;20389;-84
2022/04/27 05:19:52;;;;;;;14.75;9.82;;;410.20;2355.20;;;;;;5078027;28;20031;-80
2022/04/27 05:22:18;;;;;;;11.68;9.10;;;410.40;2355.20;;;;;;5077866;28;20077;-82
2022/04/27 05:24:44;;;;;;;10.90;8.43;;;410.50;2355.20;;;;;;5077592;28;20036;-78
2022/04/27 05:27:09;;;;;;;13.35;8.23;;;410.50;2355.20;;;;;;5095709;28;20393;-77
2022/04/27 05:32:19;;;;;;;10.80;7.55;;;410.50;2355.20;;;;;;5095227;28;20047;-78
2022/04/27 05:34:45;;;;;;;11.25;7.35;;;410.50;2355.20;;;;;;5076720;28;20383;-79
2022/04/27 05:37:12;;;;;;;12.55;8.02;;;435.20;2355.20;;;;;;5076005;28;20386;-79
2022/04/27 05:39:38;;;;;;;10.68;8.20;;;435.30;2355.20;;;;;;5095221;28;20020;-78
2022/04/27 05:42:04;;;;;;;11.75;7.93;;;435.30;2355.20;;;;;;5077324;28;20026;-78
2022/04/27 05:44:31;;;;;;;11.18;8.13;;;435.20;2355.20;;;;;;5095143;28;20038;-78
2022/04/27 05:46:57;;;;;;;11.77;7.85;;;435.20;2355.20;;;;;;5095321;28;20027;-79
2022/04/27 05:49:24;;;;;;;11.00;8.60;;;435.20;2355.20;;;;;;5076895;28;20050;-78
2022/04/27 05:51:50;;;;;;;11.35;8.07;;;435.30;2355.20;;;;;;5077182;28;20048;-78
2022/04/27 05:54:16;;;;;;;12.45;8.55;;;435.30;2355.20;;;;;;5077304;28;20028;-79
2022/04/27 05:56:43;;;;;;;11.88;6.85;;;435.30;2355.20;;;;;;5095293;28;20020;-79
2022/04/27 05:59:09;;;;;;;12.60;8.70;;;435.40;2355.20;;;;;;5077220;28;20031;-80
2022/04/27 06:01:35;;;;;;;12.57;8.40;;;435.50;2355.20;;;;;;5076996;28;20025;-79
2022/04/27 06:04:01;;;;;;;14.98;8.02;;;435.30;2355.20;;;;;;5077141;28;20123;-79
2022/04/27 06:06:27;;;;;;;11.68;7.60;;;435.40;2355.20;;;;;;5088193;28;20024;-80
2022/04/27 06:08:53;;;;;;;13.07;8.77;;;435.50;2355.20;;;;;;5099240;28;20031;-79
2022/04/27 06:11:19;;;;;;;12.30;7.50;;;435.30;2355.20;;;;;;5091120;28;20040;-79
2022/04/27 06:13:46;;;;;;;13.80;7.18;;;435.30;2355.20;;;;;;5075555;28;20093;-79
2022/04/27 06:16:13;;;;;;;15.75;8.13;;;435.50;2355.20;;;;;;5076589;28;20059;-79
2022/04/27 06:18:40;;;;;;;11.13;7.55;;;435.50;2355.20;;;;;;5075783;28;20115;-78
2022/04/27 06:21:10;;;;;;;14.02;9.05;;;435.50;2355.20;;;;;;5075432;28;20122;-79
2022/04/27 06:23:40;;;;;;;12.45;7.80;;;435.40;2355.20;;;;;;5076600;28;20103;-79
2022/04/27 06:26:06;;;;;;;16.83;12.18;;;435.20;2355.20;;;;;;5076398;28;20032;-80
2022/04/27 06:28:35;;;;;;;10.73;8.65;;;435.30;2355.20;;;;;;5076681;28;20096;-80
2022/04/27 06:31:01;;;;;;;10.70;7.78;;;435.30;2355.20;;;;;;5076510;28;20039;-80
2022/04/27 06:33:27;;;;;;;31.83;10.77;;;435.30;2355.20;;;;;;5076671;28;20097;-80
2022/04/27 06:35:53;;;;;;;18.73;9.40;;;435.50;2355.20;;;;;;5076446;28;20054;-80
2022/04/27 06:38:19;;;;;;;15.85;10.95;;;435.40;2355.20;;;;;;5076612;28;20032;-80
2022/04/27 06:40:45;;;;;;;18.38;10.38;;;435.50;2355.20;;;;;;5076649;28;20496;-79
2022/04/27 06:43:11;;;;;;;17.48;10.30;;;435.40;2355.20;;;;;;5094752;28;20028;-81
2022/04/27 06:45:37;;;;;;;19.00;11.48;;;435.20;2355.20;;;;;;5075584;28;20032;-80
2022/04/27 06:48:04;;;;;;;16.88;11.35;;;435.20;2355.20;;;;;;5075351;28;20031;-81
2022/04/27 06:50:30;;;;;;;16.05;10.70;;;435.30;2355.20;;;;;;5075813;28;20031;-81
2022/04/27 06:52:59;;;;;;;19.10;10.68;;;435.40;2355.20;;;;;;5075887;28;20123;-82
2022/04/27 06:55:25;;;;;;;20.58;11.07;;;435.50;2355.20;;;;;;5076638;28;20052;-80
2022/04/27 06:57:52;;;;;;;15.02;11.02;;;435.40;2355.20;;;;;;5076430;28;20024;-80
2022/04/27 07:00:18;;;;;;;17.73;11.23;;;435.20;2355.20;;;;;;5094241;28;20028;-81
2022/04/27 07:02:44;;;;;;;17.60;11.85;;;435.30;2355.20;;;;;;5076004;28;20493;-80
2022/04/27 07:05:17;;;;;;;16.08;11.98;;;435.20;2355.20;;;;;;5093907;28;20115;-81
2022/04/27 07:07:44;;;;;;;13.27;10.57;;;435.30;2355.20;;;;;;5076205;28;20385;-82
2022/04/27 07:10:12;;;;;;;17.35;12.20;;;435.50;2355.20;;;;;;5094339;28;20027;-82
2022/04/27 07:12:38;;;;;;;22.17;13.32;;;435.50;2355.20;;;;;;5094133;28;20027;-81
2022/04/27 07:15:04;;;;;;;17.95;12.63;;;435.50;2355.20;;;;;;5076053;28;20150;-81
2022/04/27 07:17:30;;;;;;;16.17;11.85;;;435.60;2355.20;;;;;;5093956;28;20027;-80
2022/04/27 07:19:57;;;;;;;17.90;12.13;;;435.60;2355.20;;;;;;5094203;28;20381;-80
2022/04/27 07:22:22;;;;;;;14.90;11.10;;;435.80;2355.20;;;;;;5094078;28;20363;-81
2022/04/27 07:24:49;;;;;;;17.58;11.60;;;436.00;2355.20;;;;;;5075911;28;20119;-81
2022/04/27 07:27:17;;;;;;;16.08;11.32;;;460.80;2380.80;;;;;;5094472;28;20047;-84
2022/04/27 07:29:43;;;;;;;10.73;8.25;;;460.80;2380.80;;;;;;5066364;28;20100;-78
2022/04/27 07:32:09;;;;;;;13.63;10.20;;;460.80;2380.80;;;;;;5093190;28;20470;-79
2022/04/27 07:34:34;;;;;;;12.50;9.38;;;460.90;2380.80;;;;;;5069910;28;20024;-80
2022/04/27 07:37:02;;;;;;;14.55;9.88;;;461.10;2380.80;;;;;;5075680;28;20046;-79
2022/04/27 07:39:28;;;;;;;13.13;8.70;;;461.10;2380.80;;;;;;5093407;28;20044;-79
2022/04/27 07:41:54;;;;;;;14.05;9.85;;;461.30;2380.80;;;;;;5075108;28;20059;-81
2022/04/27 07:44:20;;;;;;;13.20;9.90;;;461.40;2380.80;;;;;;5075539;28;20573;-79
2022/04/27 07:46:48;;;;;;;15.23;10.10;;;461.40;2380.80;;;;;;5075745;28;20024;-80
2022/04/27 07:49:16;;;;;;;15.07;10.63;;;461.70;2380.80;;;;;;5075756;28;20020;-80
2022/04/27 07:51:41;;;;;;;14.20;10.57;;;486.40;2380.80;;;;;;5076019;28;20087;-81
2022/04/27 07:54:07;;;;;;;15.68;11.25;;;461.70;2380.80;;;;;;5075194;28;20028;-81
2022/04/27 07:56:33;;;;;;;17.67;10.88;;;486.40;2380.80;;;;;;5093868;28;20031;-81
2022/04/27 07:58:58;;;;;;;13.20;9.25;;;486.50;2380.80;;;;;;5075881;28;20069;-80
2022/04/27 08:01:24;;;;;;;11.07;8.23;;;486.60;2380.80;;;;;;5077985;28;20500;-81
2022/04/27 08:03:50;;;;;;;12.13;8.48;;;486.60;2380.80;;;;;;5079620;28;20269;-82
2022/04/27 08:06:16;;;;;;;13.30;9.68;;;486.50;2380.80;;;;;;5097884;28;20107;-81
2022/04/27 08:08:41;;;;;;;11.25;7.90;;;486.50;2380.80;;;;;;5079411;28;20533;-81
2022/04/27 08:11:09;;;;;;;10.38;7.28;;;486.40;2380.80;;;;;;5079413;28;20393;-82
2022/04/27 08:13:35;;;;;;;10.13;7.55;;;486.40;2380.80;;;;;;5079188;28;20108;-80
2022/04/27 08:16:01;;;;;;;11.98;6.78;;;486.40;2380.80;;;;;;5078699;28;20476;-80
2022/04/27 08:18:27;;;;;;;11.38;8.45;;;461.70;2380.80;;;;;;5078789;28;20053;-80
2022/04/27 08:23:40;;;;;;;10.43;5.15;;;461.50;2380.80;;;;;;5097170;28;20443;-80
2022/04/27 08:26:07;;;;;;;7.18;5.30;;;461.40;2380.80;;;;;;5078963;28;20028;-80
2022/04/27 08:28:33;;;;;;;11.38;6.45;;;461.50;2380.80;;;;;;5078967;28;20020;-80
2022/04/27 08:30:59;;;;;;;8.20;6.03;;;461.70;2380.80;;;;;;5096605;28;20032;-82
2022/04/27 08:33:25;;;;;;;10.18;6.93;;;461.70;2380.80;;;;;;5078716;28;20024;-89
2022/04/27 08:35:54;;;;;;;10.70;7.00;;;486.40;2380.80;;;;;;5078668;28;20039;-80
2022/04/27 08:38:19;;;;;;;8.68;6.57;;;486.70;2380.80;;;;;;5078856;28;20077;-79
2022/04/27 08:40:46;;;;;;;8.80;7.00;;;486.80;2380.80;;;;;;5078632;28;20435;-80
2022/04/27 08:43:13;;;;;;;8.73;6.78;;;486.90;2380.80;;;;;;5078455;28;20028;-80
2022/04/27 08:45:41;;;;;;;9.27;7.25;;;486.80;2380.80;;;;;;5078223;28;20401;-79
2022/04/27 08:48:08;;;;;;;7.35;6.50;;;486.90;2380.80;;;;;;5096413;28;20024;-79
2022/04/27 08:50:34;;;;;;;11.05;7.05;;;487.00;2380.80;;;;;;5096374;28;20531;-79
2022/04/27 08:53:00;;;;;;;9.25;6.70;;;487.10;2380.80;;;;;;5076855;28;20036;-79
2022/04/27 08:55:29;;;;;;;9.95;6.80;;;487.30;2380.80;;;;;;5096276;28;20028;-79
2022/04/27 08:58:12;;;;;;;10.10;7.03;;;487.30;2380.80;;;;;;5077991;28;20028;-78
2022/04/27 09:00:39;;;;;;;11.90;6.25;;;487.30;2380.80;;;;;;5095841;28;20035;-78
2022/04/27 09:03:29;;;;;;;10.88;6.63;;;487.30;2380.80;;;;;;5077867;28;20492;-81
2022/04/27 09:06:05;;;;;;;9.35;6.38;;;487.30;2380.80;;;;;;5077861;28;20097;-78
2022/04/27 09:08:43;;;;;;;12.73;8.43;;;487.30;2380.80;;;;;;5095992;28;20023;-78
2022/04/27 09:11:25;;;;;;;10.18;7.80;;;512.00;2380.80;;;;;;5077961;28;20061;-78
2022/04/27 09:14:00;;;;;;;8.80;6.45;;;512.00;2380.80;;;;;;5076977;28;20055;-78
2022/04/27 09:22:11;;;;;;;12.48;5.90;;;512.30;2380.80;;;;;;5094283;28;20031;-80
2022/04/27 09:24:53;;;;;;;9.32;6.85;;;512.20;2380.80;;;;;;5077501;28;20134;-80
2022/04/27 09:27:21;;;;;;;7.97;6.40;;;512.30;2380.80;;;;;;5077543;28;20398;-81
2022/04/27 09:30:00;;;;;;;8.82;5.82;;;512.40;2380.80;;;;;;5077757;28;20429;-80
2022/04/27 09:32:26;;;;;;;7.57;5.05;;;512.60;2380.80;;;;;;5077060;28;20379;-80
2022/04/27 09:34:52;;;;;;;10.68;5.38;;;512.70;2380.80;;;;;;5095815;28;20035;-82
2022/04/27 09:37:21;;;;;;;13.13;6.30;;;512.90;2380.80;;;;;;5077221;28;20031;-82
2022/04/27 09:40:04;;;;;;;10.23;5.13;;;512.90;2380.80;;;;;;5077921;28;20035;-81
2022/04/27 09:42:37;;;;;;;7.93;5.05;;;512.90;2380.80;;;;;;5077753;28;20016;-82
2022/04/27 09:45:24;;;;;;;6.82;3.95;;;512.70;2380.80;;;;;;5077646;28;20036;-81
2022/04/27 09:48:01;;;;;;;7.18;3.90;;;512.60;2380.80;;;;;;5077474;28;20024;-81
2022/04/27 09:50:44;;;;;;;9.73;3.42;;;512.60;2380.80;;;;;;5077567;28;20035;-82
2022/04/27 09:53:11;;;;;;;6.00;3.47;;;512.90;2380.80;;;;;;5077037;28;20040;-81
2022/04/27 09:55:43;;;;;;;7.78;3.10;;;537.90;2406.40;;;;;;5077246;28;20024;-81
2022/04/27 09:58:14;;;;;;;5.38;4.32;;;538.00;2406.40;;;;;;5074824;28;20559;-80
2022/04/27 10:00:44;;;;;;;7.22;3.33;;;538.00;2406.40;;;;;;5077299;28;20119;-80
2022/04/27 10:03:14;;;;;;;5.82;3.58;;;538.30;2406.40;;;;;;5076747;28;20026;-81
2022/04/27 10:05:40;;;;;;;6.47;3.33;;;538.50;2406.40;;;;;;5077049;28;20028;-81
2022/04/27 10:08:08;;;;;;;4.97;2.45;;;563.30;2355.20;;;;;;5075867;28;20503;-80
2022/04/27 10:10:37;;;;;;;6.40;2.58;;;563.50;2227.20;;;;;;5094840;28;20477;-80
2022/04/27 10:13:02;;;;;;;6.03;2.55;;;563.60;2227.20;;;;;;5075784;28;20032;-80
2022/04/27 10:15:30;;;;;;;13.25;2.58;;;563.60;2252.80;;;;;;5076343;28;20016;-79
2022/04/27 10:17:56;;;;;;;5.15;2.50;;;563.90;2099.20;;;;;;5076365;28;20028;-81
2022/04/27 10:20:33;;;;;;;5.15;2.60;;;563.90;1996.80;;;;;;5076228;28;20024;-80
2022/04/27 10:23:31;;;;;;;5.88;3.05;;;563.90;2073.60;;;;;;5076032;28;20024;-82
2022/04/27 10:26:14;;;;;;;4.18;2.63;;;563.70;2073.60;;;;;;4976804;28;20133;-79
2022/04/27 10:28:49;;;;;;;8.45;3.58;;;563.90;1920.00;;;;;;4976615;28;20026;-80
2022/04/27 10:31:40;;;;;;;9.48;3.80;;;563.80;1868.80;;;;;;4976335;28;20492;-81
2022/04/27 10:34:18;;;;;;;4.18;2.90;;;564.10;1894.40;;;;;;4976861;28;20062;-80
2022/04/27 10:36:45;;;;;;;4.10;3.50;;;588.80;2048.00;;;;;;4976760;28;20492;-80
2022/04/27 10:39:16;;;;;;;7.40;3.72;;;589.00;2073.60;;;;;;4976035;28;20463;-79
2022/04/27 10:41:43;;;;;;;8.45;4.63;;;;;;;;;;4992466;28;20050;-78
2022/04/27 10:44:09;;;;;;;19.77;11.57;;;589.40;2022.40;;;;;;4992599;28;20528;-80
2022/04/27 10:46:39;;;;;;;9.57;4.25;;;589.60;1971.20;;;;;;4975447;28;20061;-78
2022/04/27 10:49:28;;;;;;;8.55;5.93;;;589.60;1868.80;;;;;;4975136;28;20034;-81
2022/04/27 10:52:06;;;;;;;16.83;6.53;;;614.40;1971.20;;;;;;4983745;28;20046;-75
2022/04/27 11:00:03;;;;;;;7.15;4.07;;;614.90;1766.40;;;;;;4726393;23;20058;-75
2022/04/27 11:02:38;;;;;;;6.22;3.78;;;615.10;1740.80;;;;;;4975184;28;20034;-78
2022/04/27 11:05:24;;;;;;;8.05;4.28;;;615.10;1689.60;;;;;;4973291;28;20057;-78
2022/04/27 11:08:13;;;;;;;7.90;4.22;;;615.00;1792.00;;;;;;4991127;28;20448;-79
2022/04/27 11:10:39;;;;;;;5.82;3.90;;;615.00;1689.60;;;;;;4989659;28;20475;-76
2022/04/27 11:13:08;;;;;;;5.63;4.10;;;615.00;1715.20;;;;;;4974879;28;20073;-77
2022/04/27 11:15:34;;;;;;;5.80;3.75;;;614.80;1740.80;;;;;;4992241;28;20443;-75
2022/04/27 11:18:01;;;;;;;6.80;3.75;;;615.00;1715.20;;;;;;4992497;28;20026;-79
2022/04/27 11:20:37;;;;;;;5.45;4.00;;;614.80;1766.40;;;;;;4992410;28;20078;-78
2022/04/27 11:23:23;;;;;;;4.07;3.05;;;614.80;1740.80;;;;;;4992277;28;20101;-80
2022/04/27 11:25:52;;;;;;;7.68;4.47;;;614.50;1638.40;;;;;;4992870;28;20484;-77
2022/04/27 11:28:18;;;;;;;5.90;3.60;;;614.50;1664.00;;;;;;4974375;28;20022;-78
2022/04/27 11:30:44;;;;;;;8.60;3.50;;;589.60;1792.00;;;;;;4989960;28;20524;-77
2022/04/27 11:33:11;;;;;;;8.95;4.30;;;589.40;1792.00;;;;;;4974717;28;20085;-77
2022/04/27 11:35:50;;;;;;;9.50;6.97;;;589.40;1792.00;;;;;;4975961;28;20777;-77
2022/04/27 11:38:21;;;;;;;8.30;4.75;;;614.50;1740.80;;;;;;4979419;28;20026;-77
2022/04/27 11:40:49;;;;;;;7.38;4.78;;;615.00;1689.60;;;;;;4996773;28;20030;-78
2022/04/27 11:43:24;;;;;;;5.80;4.00;;;615.10;1689.60;;;;;;4996785;28;20066;-78
2022/04/27 11:45:50;;;;;;;9.68;3.28;;;615.10;1689.60;;;;;;4996387;28;20038;-80
2022/04/27 11:48:18;;;;;;;7.22;3.15;;;614.90;1689.60;;;;;;4996329;28;20026;-80
2022/04/27 11:50:44;;;;;;;3.88;2.70;;;614.80;1689.60;;;;;;4979178;28;20026;-79
2022/04/27 11:53:13;;;;;;;6.82;4.43;;;614.70;1587.20;;;;;;4979075;28;20030;-79
2022/04/27 11:55:40;;;;;;;8.02;5.78;;;614.70;1689.60;;;;;;4978555;28;20089;-80
2022/04/27 11:58:07;;;;;;;7.68;5.32;;;614.90;1689.60;;;;;;4978207;28;20385;-78
2022/04/27 12:00:34;;;;;;;7.68;5.07;;;615.00;1766.40;;;;;;4978746;28;20124;-80
2022/04/27 12:03:05;;;;;;;7.53;4.75;;;640.00;1715.20;;;;;;4978949;28;20118;-80
2022/04/27 12:05:36;;;;;;;9.00;5.07;;;640.20;1689.60;;;;;;4978737;28;20034;-80
2022/04/27 12:08:13;;;;;;;10.52;4.60;;;640.10;1715.20;;;;;;4979060;28;20027;-80
2022/04/27 12:10:39;;;;;;;6.97;4.07;;;640.50;1689.60;;;;;;4978814;28;20121;-78
2022/04/27 12:13:06;;;;;;;9.90;5.60;;;640.30;1664.00;;;;;;4978581;28;20109;-79
2022/04/27 12:15:32;;;;;;;10.95;4.47;;;640.50;1612.80;;;;;;4978538;28;20060;-79
2022/04/27 12:17:59;;;;;;;17.25;4.75;;;640.60;1561.60;;;;;;4996250;28;20054;-79
2022/04/27 12:20:39;;;;;;;10.13;3.83;;;640.60;1536.00;;;;;;4978547;28;20026;-80
2022/04/27 12:23:10;;;;;;;9.82;3.65;;;640.40;1484.80;;;;;;4995906;28;20023;-80
2022/04/27 12:25:52;;;;;;;4.55;3.38;;;640.00;1561.60;;;;;;4978599;28;20035;-81
2022/04/27 12:28:20;;;;;;;10.85;4.40;;;615.20;1587.20;;;;;;4978161;28;20027;-80
2022/04/27 12:30:49;;;;;;;7.20;5.10;;;640.10;1510.40;;;;;;4995719;28;20381;-78
2022/04/27 12:33:17;;;;;;;9.27;4.30;;;640.30;1510.40;;;;;;4978539;28;20033;-78
2022/04/27 12:38:30;;;;;;;7.13;3.72;;;640.90;1484.80;;;;;;4995079;28;20128;-76
2022/04/27 12:40:57;;;;;;;7.20;3.50;;;640.90;1433.60;;;;;;4977664;28;20037;-77
2022/04/27 12:43:24;;;;;;;4.68;2.70;;;640.50;1459.20;;;;;;4977674;28;20110;-79